createdAt,value
2023-05-17T00:01:45.246Z,10.79
2023-05-17T00:04:13.888Z,10.79
2023-05-17T00:06:42.004Z,10.73
2023-05-17T00:09:10.140Z,10.71
2023-05-17T00:11:38.103Z,10.68
2023-05-17T00:14:06.201Z,10.64
2023-05-17T00:16:34.153Z,10.64
2023-05-17T00:19:02.225Z,10.62
2023-05-17T00:21:31.367Z,10.59
2023-05-17T00:23:59.332Z,10.58
2023-05-17T00:26:27.296Z,10.53
2023-05-17T00:28:55.558Z,10.52
2023-05-17T00:31:23.551Z,10.56
2023-05-17T00:33:51.615Z,10.54
2023-05-17T00:36:19.485Z,10.56
2023-05-17T00:38:47.424Z,10.56
2023-05-17T00:41:15.499Z,10.54
2023-05-17T00:43:43.432Z,10.53
2023-05-17T00:46:11.405Z,10.48
2023-05-17T00:48:39.823Z,10.49
2023-05-17T00:51:08.475Z,10.48
2023-05-17T00:53:37.428Z,10.45
2023-05-17T00:56:06.264Z,10.42
2023-05-17T00:58:34.378Z,10.39
2023-05-17T01:01:03.134Z,10.35
2023-05-17T01:03:31.130Z,10.34
2023-05-17T01:05:59.557Z,10.30
2023-05-17T01:08:29.968Z,10.33
2023-05-17T01:11:06.618Z,10.32
2023-05-17T01:13:48.927Z,10.28
2023-05-17T01:16:27.902Z,10.28
2023-05-17T01:19:08.140Z,10.29
2023-05-17T01:21:54.681Z,10.32
2023-05-17T01:24:28.479Z,10.26
2023-05-17T01:26:59.441Z,10.17
2023-05-17T01:29:30.284Z,10.17
2023-05-17T01:32:00.128Z,10.14
2023-05-17T01:34:29.466Z,10.08
2023-05-17T01:36:58.288Z,10.05
2023-05-17T01:39:26.782Z,10.10
2023-05-17T01:42:11.374Z,10.05
2023-05-17T01:45:12.854Z,10.02
2023-05-17T01:47:59.977Z,9.97
2023-05-17T01:50:31.231Z,9.95
2023-05-17T01:53:08.323Z,9.90
2023-05-17T01:55:50.003Z,9.88
2023-05-17T01:58:21.940Z,9.85
2023-05-17T02:00:53.562Z,9.82
2023-05-17T02:03:22.048Z,9.79
2023-05-17T02:05:53.772Z,9.75
2023-05-17T02:08:21.778Z,9.72
2023-05-17T02:10:49.749Z,9.69
2023-05-17T02:13:17.643Z,9.63
2023-05-17T02:15:45.632Z,9.60
2023-05-17T02:18:13.766Z,9.60
2023-05-17T02:20:41.892Z,9.58
2023-05-17T02:23:09.920Z,9.59
2023-05-17T02:25:37.845Z,9.56
2023-05-17T02:28:06.990Z,9.52
2023-05-17T02:30:40.935Z,9.45
2023-05-17T02:33:09.326Z,9.44
2023-05-17T02:35:37.644Z,9.45
2023-05-17T02:38:05.713Z,9.45
2023-05-17T02:40:33.751Z,9.41
2023-05-17T02:43:03.966Z,9.34
2023-05-17T02:45:32.044Z,9.28
2023-05-17T02:48:00.069Z,9.22
2023-05-17T02:50:28.001Z,9.18
2023-05-17T02:52:56.102Z,9.12
2023-05-17T02:55:23.992Z,9.06
2023-05-17T02:57:52.179Z,8.98
2023-05-17T03:00:20.662Z,8.94
2023-05-17T03:02:48.831Z,8.92
2023-05-17T03:05:16.896Z,8.92
2023-05-17T03:07:49.511Z,8.87
2023-05-17T03:10:17.773Z,8.85
2023-05-17T03:12:46.747Z,8.81
2023-05-17T03:15:18.344Z,8.75
2023-05-17T03:17:46.886Z,8.68
2023-05-17T03:20:17.456Z,8.65
2023-05-17T03:22:46.857Z,8.60
2023-05-17T03:25:15.543Z,8.60
2023-05-17T03:27:43.614Z,8.61
2023-05-17T03:30:12.892Z,8.62
2023-05-17T03:32:41.210Z,8.61
2023-05-17T03:35:09.624Z,8.60
2023-05-17T03:37:38.856Z,8.59
2023-05-17T03:40:08.043Z,8.58
2023-05-17T03:42:37.114Z,8.60
2023-05-17T03:45:06.677Z,8.57
2023-05-17T03:47:34.872Z,8.59
2023-05-17T03:50:03.504Z,8.57
2023-05-17T03:52:31.809Z,8.49
2023-05-17T03:55:00.387Z,8.50
2023-05-17T03:57:28.740Z,8.53
2023-05-17T03:59:57.873Z,8.52
2023-05-17T04:02:26.568Z,8.45
2023-05-17T04:04:54.735Z,8.44
2023-05-17T04:07:24.608Z,8.43
2023-05-17T04:09:52.616Z,8.45
2023-05-17T04:12:21.127Z,8.48
2023-05-17T04:14:49.121Z,8.53
2023-05-17T04:17:17.189Z,8.54
2023-05-17T04:19:46.198Z,8.59
2023-05-17T04:22:15.468Z,8.64
2023-05-17T04:24:43.565Z,8.66
2023-05-17T04:27:11.626Z,8.70
2023-05-17T04:29:41.049Z,8.79
2023-05-17T04:32:09.280Z,8.80
2023-05-17T04:34:37.618Z,8.84
2023-05-17T04:37:06.237Z,8.85
2023-05-17T04:39:36.737Z,8.89
2023-05-17T04:42:04.800Z,8.86
2023-05-17T04:44:39.499Z,8.88
2023-05-17T04:47:08.261Z,8.88
2023-05-17T04:49:37.564Z,8.89
2023-05-17T04:52:06.340Z,8.85
2023-05-17T04:54:35.771Z,8.88
2023-05-17T04:57:03.931Z,8.91
2023-05-17T04:59:52.088Z,8.98
2023-05-17T05:02:21.008Z,9.06
2023-05-17T05:04:49.486Z,9.10
2023-05-17T05:07:18.023Z,9.16
2023-05-17T05:09:46.182Z,9.24
2023-05-17T05:12:14.728Z,9.28
2023-05-17T05:14:43.240Z,9.37
2023-05-17T05:17:11.308Z,9.40
2023-05-17T05:19:39.672Z,9.42
2023-05-17T05:22:08.442Z,9.44
2023-05-17T05:24:38.273Z,9.46
2023-05-17T05:27:07.213Z,9.57
2023-05-17T05:29:36.062Z,9.63
2023-05-17T05:32:04.362Z,9.69
2023-05-17T05:34:34.977Z,9.71
2023-05-17T05:37:06.013Z,9.71
2023-05-17T05:39:34.193Z,9.76
2023-05-17T05:42:04.439Z,9.79
2023-05-17T05:44:32.618Z,9.87
2023-05-17T05:47:01.433Z,9.94
2023-05-17T05:49:29.517Z,9.98
2023-05-17T05:51:57.659Z,10.07
2023-05-17T05:54:26.796Z,10.20
2023-05-17T05:56:55.370Z,10.32
2023-05-17T05:59:23.527Z,10.50
2023-05-17T06:01:51.896Z,10.57
2023-05-17T06:04:22.735Z,10.61
2023-05-17T06:06:58.050Z,10.65
2023-05-17T06:09:26.263Z,10.73
2023-05-17T06:11:54.194Z,10.79
2023-05-17T06:14:22.236Z,10.88
2023-05-17T06:16:51.031Z,11.00
2023-05-17T06:19:20.650Z,11.13
2023-05-17T06:21:49.039Z,11.21
2023-05-17T06:24:17.229Z,11.24
2023-05-17T06:26:45.242Z,11.28
2023-05-17T06:29:13.334Z,11.30
2023-05-17T06:31:41.449Z,11.31
2023-05-17T06:34:09.657Z,11.33
2023-05-17T06:36:38.674Z,11.37
2023-05-17T06:39:07.236Z,11.42
2023-05-17T06:41:35.437Z,11.47
2023-05-17T06:44:03.586Z,11.44
2023-05-17T06:46:31.557Z,11.53
2023-05-17T06:48:59.773Z,11.49
2023-05-17T06:51:27.772Z,11.44
2023-05-17T06:53:55.770Z,11.38
2023-05-17T06:56:23.868Z,11.45
2023-05-17T06:58:51.958Z,11.52
2023-05-17T07:01:20.596Z,11.65
2023-05-17T07:03:48.617Z,11.83
2023-05-17T07:06:17.067Z,12.03
2023-05-17T07:08:45.184Z,12.14
2023-05-17T07:11:13.223Z,12.15
2023-05-17T07:13:41.080Z,12.21
2023-05-17T07:16:09.834Z,12.34
2023-05-17T07:18:38.442Z,12.48
2023-05-17T07:21:07.707Z,12.58
2023-05-17T07:23:35.722Z,12.61
2023-05-17T07:26:04.016Z,12.65
2023-05-17T07:28:32.489Z,12.84
2023-05-17T07:31:03.305Z,12.84
2023-05-17T07:33:31.963Z,12.83
2023-05-17T07:35:59.968Z,12.95
2023-05-17T07:38:28.029Z,13.12
2023-05-17T07:40:56.063Z,13.11
2023-05-17T07:43:24.812Z,13.21
2023-05-17T07:45:52.745Z,13.50
2023-05-17T07:48:20.952Z,13.64
2023-05-17T07:50:50.149Z,13.82
2023-05-17T07:53:18.177Z,13.97
2023-05-17T07:55:49.521Z,14.15
2023-05-17T07:58:17.633Z,14.42
2023-05-17T08:00:46.350Z,14.64
2023-05-17T08:03:15.803Z,14.80
2023-05-17T08:05:45.589Z,14.81
2023-05-17T08:08:18.355Z,14.75
2023-05-17T08:10:46.304Z,14.76
2023-05-17T08:13:14.308Z,14.81
2023-05-17T08:15:42.261Z,14.69
2023-05-17T08:18:11.268Z,14.61
2023-05-17T08:20:39.806Z,14.56
2023-05-17T08:23:10.744Z,14.44
2023-05-17T08:25:38.705Z,14.49
2023-05-17T08:28:06.670Z,14.39
2023-05-17T08:30:34.736Z,14.45
2023-05-17T08:33:03.631Z,14.49
2023-05-17T08:35:32.398Z,14.43
2023-05-17T08:38:01.061Z,14.28
2023-05-17T08:40:29.796Z,14.28
2023-05-17T08:42:59.238Z,14.25
2023-05-17T08:45:31.908Z,14.30
2023-05-17T08:48:01.980Z,14.23
2023-05-17T08:50:34.829Z,14.29
2023-05-17T08:53:03.590Z,14.18
2023-05-17T08:55:33.643Z,14.04
2023-05-17T08:58:04.160Z,13.95
2023-05-17T09:00:34.274Z,13.95
2023-05-17T09:03:02.403Z,14.05
2023-05-17T09:05:31.698Z,14.08
2023-05-17T09:07:59.859Z,14.30
2023-05-17T09:10:27.957Z,14.49
2023-05-17T09:12:56.733Z,14.70
2023-05-17T09:15:27.456Z,14.69
2023-05-17T09:17:57.137Z,14.78
2023-05-17T09:20:37.006Z,14.88
2023-05-17T09:23:13.718Z,14.85
2023-05-17T09:25:49.296Z,14.85
2023-05-17T09:28:20.713Z,14.84
2023-05-17T09:30:49.831Z,14.85
2023-05-17T09:33:22.140Z,14.82
2023-05-17T09:35:50.137Z,14.80
2023-05-17T09:38:18.279Z,14.89
2023-05-17T09:40:48.516Z,14.97
2023-05-17T09:43:23.432Z,14.70
2023-05-17T09:45:59.341Z,14.59
2023-05-17T09:48:28.645Z,14.65
2023-05-17T09:50:56.996Z,14.88
2023-05-17T09:53:32.351Z,15.05
2023-05-17T09:56:03.110Z,15.09
2023-05-17T09:58:37.354Z,14.99
2023-05-17T10:01:07.845Z,14.93
2023-05-17T10:03:38.168Z,14.80
2023-05-17T10:06:09.839Z,14.63
2023-05-17T10:08:47.502Z,14.59
2023-05-17T10:11:16.059Z,14.55
2023-05-17T10:14:10.302Z,14.67
2023-05-17T10:16:40.119Z,14.69
2023-05-17T10:19:11.930Z,14.82
2023-05-17T10:21:43.275Z,15.08
2023-05-17T10:24:12.550Z,15.13
2023-05-17T10:26:42.463Z,15.05
2023-05-17T10:29:11.320Z,15.15
2023-05-17T10:31:43.694Z,15.33
2023-05-17T10:34:14.532Z,15.46
2023-05-17T10:36:44.995Z,15.37
2023-05-17T10:39:13.409Z,15.24
2023-05-17T10:41:43.957Z,15.29
2023-05-17T10:44:17.173Z,15.23
2023-05-17T10:46:56.592Z,15.09
2023-05-17T10:49:27.062Z,14.99
2023-05-17T10:51:58.547Z,14.96
2023-05-17T10:54:36.842Z,15.06
2023-05-17T10:57:08.810Z,15.09
2023-05-17T10:59:57.778Z,14.93
2023-05-17T11:02:29.167Z,14.97
2023-05-17T11:04:58.097Z,14.98
2023-05-17T11:07:32.626Z,14.97
2023-05-17T11:10:04.163Z,15.01
2023-05-17T11:12:43.507Z,14.91
2023-05-17T11:15:18.304Z,14.79
2023-05-17T11:17:54.118Z,14.74
2023-05-17T11:20:26.314Z,14.92
2023-05-17T11:23:21.542Z,15.09
2023-05-17T11:25:51.465Z,15.26
2023-05-17T11:28:22.483Z,15.24
2023-05-17T11:30:54.356Z,15.17
2023-05-17T11:33:45.841Z,15.21
2023-05-17T11:36:23.126Z,15.32
2023-05-17T11:39:13.767Z,15.27
2023-05-17T11:41:56.702Z,15.29
2023-05-17T11:44:33.203Z,15.57
2023-05-17T11:47:07.145Z,15.76
2023-05-17T11:49:39.463Z,15.77
2023-05-17T11:52:08.507Z,15.63
2023-05-17T11:54:39.872Z,15.64
2023-05-17T11:57:09.922Z,15.65
2023-05-17T11:59:43.214Z,15.59
2023-05-17T12:02:26.155Z,15.61
2023-05-17T12:04:54.780Z,15.59
2023-05-17T12:07:24.018Z,15.59
2023-05-17T12:09:53.399Z,15.57
2023-05-17T12:12:24.041Z,15.48
2023-05-17T12:14:52.540Z,15.61
2023-05-17T12:17:31.766Z,15.74
2023-05-17T12:20:10.374Z,16.08
2023-05-17T12:22:57.378Z,16.21
2023-05-17T12:25:28.361Z,15.90
2023-05-17T12:28:14.924Z,15.80
2023-05-17T12:30:43.682Z,15.83
2023-05-17T12:33:11.866Z,16.00
2023-05-17T12:35:41.077Z,16.15
2023-05-17T12:38:10.619Z,16.11
2023-05-17T12:40:43.259Z,16.17
2023-05-17T12:43:12.898Z,16.24
2023-05-17T12:45:43.642Z,16.12
2023-05-17T12:48:11.614Z,16.03
2023-05-17T12:50:46.282Z,16.05
2023-05-17T12:53:14.279Z,15.96
2023-05-17T12:55:42.202Z,15.93
2023-05-17T12:58:10.090Z,15.96
2023-05-17T13:00:38.075Z,15.90
2023-05-17T13:03:12.204Z,15.92
2023-05-17T13:05:43.834Z,15.87
2023-05-17T13:08:22.015Z,15.72
2023-05-17T13:10:50.156Z,15.74
2023-05-17T13:13:20.568Z,15.93
2023-05-17T13:15:48.665Z,16.11
2023-05-17T13:18:16.919Z,16.17
2023-05-17T13:20:45.341Z,16.14
2023-05-17T13:23:13.221Z,15.92
2023-05-17T13:25:41.176Z,15.84
2023-05-17T13:28:09.269Z,15.82
2023-05-17T13:30:39.356Z,15.95
2023-05-17T13:33:08.546Z,15.90
2023-05-17T13:35:39.049Z,15.84
2023-05-17T13:38:07.001Z,15.94
2023-05-17T13:40:34.938Z,16.05
2023-05-17T13:43:03.725Z,15.99
2023-05-17T13:45:31.879Z,16.11
2023-05-17T13:47:59.898Z,16.14
2023-05-17T13:50:28.601Z,16.08
2023-05-17T13:52:56.980Z,16.17
2023-05-17T13:55:25.669Z,16.08
2023-05-17T13:57:54.401Z,16.01
2023-05-17T14:00:22.876Z,16.13
2023-05-17T14:02:50.874Z,16.22
2023-05-17T14:05:19.316Z,16.13
2023-05-17T14:07:47.391Z,16.18
2023-05-17T14:10:15.352Z,16.23
2023-05-17T14:12:44.025Z,16.30
2023-05-17T14:15:11.960Z,16.46
2023-05-17T14:17:40.100Z,16.50
2023-05-17T14:20:09.644Z,16.47
2023-05-17T14:22:37.754Z,16.53
2023-05-17T14:25:07.165Z,16.50
2023-05-17T14:27:34.999Z,16.41
2023-05-17T14:30:04.399Z,16.37
2023-05-17T14:32:32.523Z,16.38
2023-05-17T14:35:00.473Z,16.48
2023-05-17T14:37:28.508Z,16.59
2023-05-17T14:40:05.939Z,16.66
2023-05-17T14:42:35.139Z,16.79
2023-05-17T14:45:03.148Z,16.84
2023-05-17T14:47:31.086Z,16.82
2023-05-17T14:49:59.093Z,16.94
2023-05-17T14:52:27.069Z,17.03
2023-05-17T14:54:55.026Z,17.33
2023-05-17T14:57:23.939Z,17.41
2023-05-17T14:59:52.877Z,17.35
2023-05-17T15:02:21.397Z,17.49
2023-05-17T15:04:49.558Z,17.71
2023-05-17T15:07:18.170Z,17.93
2023-05-17T15:09:46.351Z,18.05
2023-05-17T15:12:14.324Z,18.14
2023-05-17T15:14:42.281Z,17.96
2023-05-17T15:17:10.288Z,17.87
2023-05-17T15:19:38.333Z,17.77
2023-05-17T15:22:06.756Z,17.57
2023-05-17T15:24:35.246Z,17.49
2023-05-17T15:27:03.210Z,17.56
2023-05-17T15:29:31.832Z,17.54
2023-05-17T15:32:00.593Z,17.51
2023-05-17T15:34:29.626Z,17.45
2023-05-17T15:36:58.690Z,17.51
2023-05-17T15:39:28.602Z,17.51
2023-05-17T15:41:56.594Z,17.41
2023-05-17T15:44:24.693Z,17.40
2023-05-17T15:46:52.603Z,17.45
2023-05-17T15:49:20.619Z,17.41
2023-05-17T15:51:48.761Z,17.27
2023-05-17T15:54:16.884Z,17.26
2023-05-17T15:56:44.822Z,17.10
2023-05-17T15:59:12.816Z,16.99
2023-05-17T16:01:42.558Z,16.84
2023-05-17T16:04:10.490Z,16.76
2023-05-17T16:06:38.614Z,16.88
2023-05-17T16:09:07.108Z,16.84
2023-05-17T16:11:35.173Z,16.89
2023-05-17T16:14:03.145Z,16.81
2023-05-17T16:16:31.161Z,16.72
2023-05-17T16:18:59.286Z,16.64
2023-05-17T16:21:27.771Z,16.60
2023-05-17T16:23:56.312Z,16.54
2023-05-17T16:26:24.596Z,16.36
2023-05-17T16:28:52.742Z,16.19
2023-05-17T16:31:20.915Z,16.17
2023-05-17T16:33:49.294Z,16.08
2023-05-17T16:36:18.301Z,16.00
2023-05-17T16:38:46.311Z,15.99
2023-05-17T16:41:14.196Z,15.97
2023-05-17T16:43:42.184Z,15.80
2023-05-17T16:46:10.354Z,15.75
2023-05-17T16:48:38.231Z,15.73
2023-05-17T16:51:06.261Z,15.69
2023-05-17T16:53:34.283Z,15.65
2023-05-17T16:56:02.288Z,15.62
2023-05-17T16:58:30.335Z,15.57
2023-05-17T17:00:58.360Z,15.50
2023-05-17T17:03:26.346Z,15.39
2023-05-17T17:05:54.893Z,15.31
2023-05-17T17:08:22.935Z,15.25
2023-05-17T17:10:50.993Z,15.21
2023-05-17T17:13:18.993Z,15.18
2023-05-17T17:15:47.470Z,15.12
2023-05-17T17:18:18.052Z,15.09
2023-05-17T17:20:46.885Z,15.08
2023-05-17T17:23:15.029Z,15.02
2023-05-17T17:25:43.059Z,14.88
2023-05-17T17:28:10.966Z,14.78
2023-05-17T17:30:39.018Z,14.72
2023-05-17T17:33:07.203Z,14.64
2023-05-17T17:35:35.172Z,14.54
2023-05-17T17:38:03.344Z,14.50
2023-05-17T17:40:31.826Z,14.42
2023-05-17T17:43:00.422Z,14.36
2023-05-17T17:45:28.441Z,14.31
2023-05-17T17:47:56.507Z,14.30
2023-05-17T17:50:24.458Z,14.22
2023-05-17T17:52:52.479Z,14.13
2023-05-17T17:55:20.752Z,14.07
2023-05-17T17:57:48.805Z,14.00
2023-05-17T18:00:16.977Z,13.92
2023-05-17T18:02:45.010Z,13.91
2023-05-17T18:05:13.069Z,13.84
2023-05-17T18:07:41.455Z,13.75
2023-05-17T18:10:10.601Z,13.64
2023-05-17T18:12:38.613Z,13.55
2023-05-17T18:15:07.094Z,13.49
2023-05-17T18:17:35.272Z,13.44
2023-05-17T18:20:05.157Z,13.33
2023-05-17T18:22:34.125Z,13.24
2023-05-17T18:25:02.177Z,13.16
2023-05-17T18:27:31.167Z,13.10
2023-05-17T18:29:59.151Z,13.07
2023-05-17T18:32:27.271Z,13.01
2023-05-17T18:34:55.301Z,12.94
2023-05-17T18:37:23.384Z,12.89
2023-05-17T18:39:52.033Z,12.83
2023-05-17T18:42:25.428Z,12.80
2023-05-17T18:44:53.532Z,12.74
2023-05-17T18:47:23.831Z,12.65
2023-05-17T18:49:52.343Z,12.54
2023-05-17T18:52:21.118Z,12.48
2023-05-17T18:54:49.219Z,12.43
2023-05-17T18:57:18.815Z,12.36
2023-05-17T18:59:47.832Z,12.29
2023-05-17T19:02:15.865Z,12.21
2023-05-17T19:04:46.782Z,12.15
2023-05-17T19:07:16.451Z,12.09
2023-05-17T19:09:44.443Z,12.04
2023-05-17T19:12:12.557Z,11.98
2023-05-17T19:14:41.504Z,11.91
2023-05-17T19:17:10.704Z,11.85
2023-05-17T19:19:39.189Z,11.80
2023-05-17T19:22:07.471Z,11.74
2023-05-17T19:24:36.110Z,11.69
2023-05-17T19:27:05.650Z,11.63
2023-05-17T19:29:35.369Z,11.59
2023-05-17T19:32:05.361Z,11.53
2023-05-17T19:34:33.810Z,11.43
2023-05-17T19:37:01.817Z,11.37
2023-05-17T19:39:30.206Z,11.35
2023-05-17T19:41:58.323Z,11.33
2023-05-17T19:44:27.682Z,11.32
2023-05-17T19:46:55.803Z,11.30
2023-05-17T19:49:27.490Z,11.26
2023-05-17T19:52:00.940Z,11.21
2023-05-17T19:54:31.363Z,11.16
2023-05-17T19:57:00.269Z,11.12
2023-05-17T19:59:28.500Z,11.03
2023-05-17T20:01:57.042Z,10.94
2023-05-17T20:04:28.782Z,10.89
2023-05-17T20:06:57.065Z,10.82
2023-05-17T20:09:30.488Z,10.75
2023-05-17T20:11:58.728Z,10.71
2023-05-17T20:14:27.913Z,10.69
2023-05-17T20:16:56.510Z,10.63
2023-05-17T20:19:24.876Z,10.55
2023-05-17T20:21:53.484Z,10.48
2023-05-17T20:24:23.553Z,10.45
2023-05-17T20:26:51.516Z,10.44
2023-05-17T20:29:19.561Z,10.41
2023-05-17T20:31:47.554Z,10.35
2023-05-17T20:34:15.587Z,10.32
2023-05-17T20:36:43.697Z,10.27
2023-05-17T20:39:12.384Z,10.26
2023-05-17T20:41:42.035Z,10.20
2023-05-17T20:44:09.994Z,10.13
2023-05-17T20:46:39.186Z,10.10
2023-05-17T20:49:10.208Z,10.04
2023-05-17T20:51:38.352Z,9.98
2023-05-17T20:54:09.377Z,9.92
2023-05-17T20:56:37.353Z,9.83
2023-05-17T20:59:06.216Z,9.75
2023-05-17T21:01:34.993Z,9.67
2023-05-17T21:04:03.107Z,9.61
2023-05-17T21:06:32.744Z,9.58
2023-05-17T21:09:02.935Z,9.56
2023-05-17T21:11:31.633Z,9.51
2023-05-17T21:13:59.957Z,9.47
2023-05-17T21:16:29.617Z,9.45
2023-05-17T21:18:58.090Z,9.43
2023-05-17T21:21:26.043Z,9.40
2023-05-17T21:23:54.084Z,9.42
2023-05-17T21:26:23.813Z,9.44
2023-05-17T21:28:51.817Z,9.45
2023-05-17T21:31:21.356Z,9.47
2023-05-17T21:33:49.844Z,9.49
2023-05-17T21:36:17.899Z,9.53
2023-05-17T21:38:46.890Z,9.54
2023-05-17T21:41:14.863Z,9.57
2023-05-17T21:43:44.554Z,9.57
2023-05-17T21:46:14.057Z,9.61
2023-05-17T21:48:42.076Z,9.62
2023-05-17T21:51:10.169Z,9.67
2023-05-17T21:53:38.142Z,9.67
2023-05-17T21:56:08.566Z,9.68
2023-05-17T21:58:36.490Z,9.67
2023-05-17T22:01:05.438Z,9.62
2023-05-17T22:03:33.706Z,9.62
2023-05-17T22:06:02.291Z,9.61
2023-05-17T22:08:30.126Z,9.61
2023-05-17T22:10:58.110Z,9.62
2023-05-17T22:13:27.227Z,9.60
2023-05-17T22:15:57.999Z,9.60
2023-05-17T22:18:27.603Z,9.57
2023-05-17T22:20:59.845Z,9.56
2023-05-17T22:23:28.068Z,9.49
2023-05-17T22:25:57.852Z,9.46
2023-05-17T22:28:26.844Z,9.42
2023-05-17T22:30:55.690Z,9.39
2023-05-17T22:33:23.716Z,9.34
2023-05-17T22:35:53.837Z,9.31
2023-05-17T22:38:25.123Z,9.27
2023-05-17T22:40:53.061Z,9.24
2023-05-17T22:43:26.509Z,9.22
2023-05-17T22:46:00.345Z,9.22
2023-05-17T22:48:30.952Z,9.20
2023-05-17T22:51:03.581Z,9.19
2023-05-17T22:53:32.367Z,9.18
2023-05-17T22:56:00.291Z,9.18
2023-05-17T22:58:28.289Z,9.11
2023-05-17T23:00:56.400Z,9.11
2023-05-17T23:03:24.367Z,9.15
2023-05-17T23:06:02.750Z,9.15
2023-05-17T23:08:32.857Z,9.14
2023-05-17T23:11:02.352Z,9.14
2023-05-17T23:13:30.429Z,9.15
2023-05-17T23:15:58.468Z,9.14
2023-05-17T23:18:28.261Z,9.13
2023-05-17T23:20:56.739Z,9.11
2023-05-17T23:23:24.741Z,9.09
2023-05-17T23:25:57.004Z,9.04
2023-05-17T23:28:25.395Z,8.99
2023-05-17T23:30:55.211Z,8.95
2023-05-17T23:33:23.205Z,8.91
2023-05-17T23:35:51.971Z,8.88
2023-05-17T23:38:19.898Z,8.85
2023-05-17T23:40:47.979Z,8.80
2023-05-17T23:43:15.984Z,8.73
2023-05-17T23:45:43.957Z,8.72
2023-05-17T23:48:11.925Z,8.69
2023-05-17T23:50:39.907Z,8.68
2023-05-17T23:53:10.182Z,8.64
2023-05-17T23:55:39.047Z,8.60
2023-05-17T23:58:07.005Z,8.58
